sensor_id;sensor_type;location;lat;lon;timestamp;P1;durP1;ratioP1;P2;durP2;ratioP2
52304;SDS011;38248;52.722;6.734;2022-08-11T00:01:12;5.53;;;4.32;;
52304;SDS011;38248;52.722;6.734;2022-08-11T00:03:46;5.55;;;4.50;;
52304;SDS011;38248;52.722;6.734;2022-08-11T00:06:21;4.78;;;4.40;;
52304;SDS011;38248;52.722;6.734;2022-08-11T00:08:53;5.55;;;5.05;;
52304;SDS011;38248;52.722;6.734;2022-08-11T00:11:19;5.75;;;5.15;;
52304;SDS011;38248;52.722;6.734;2022-08-11T00:13:46;5.78;;;5.28;;
52304;SDS011;38248;52.722;6.734;2022-08-11T00:16:15;6.07;;;4.88;;
52304;SDS011;38248;52.722;6.734;2022-08-11T00:18:49;5.40;;;4.65;;
52304;SDS011;38248;52.722;6.734;2022-08-11T00:21:19;6.43;;;4.75;;
52304;SDS011;38248;52.722;6.734;2022-08-11T00:23:50;9.32;;;5.20;;
52304;SDS011;38248;52.722;6.734;2022-08-11T00:26:22;5.53;;;5.00;;
52304;SDS011;38248;52.722;6.734;2022-08-11T00:28:49;5.47;;;4.85;;
52304;SDS011;38248;52.722;6.734;2022-08-11T00:31:23;8.75;;;5.10;;
52304;SDS011;38248;52.722;6.734;2022-08-11T00:33:54;5.60;;;5.10;;
52304;SDS011;38248;52.722;6.734;2022-08-11T00:36:28;7.00;;;5.20;;
52304;SDS011;38248;52.722;6.734;2022-08-11T00:39:21;6.57;;;5.05;;
52304;SDS011;38248;52.722;6.734;2022-08-11T00:44:54;5.68;;;5.15;;
52304;SDS011;38248;52.722;6.734;2022-08-11T00:55:48;5.72;;;5.20;;
52304;SDS011;38248;52.722;6.734;2022-08-11T01:24:08;8.90;;;6.78;;
52304;SDS011;38248;52.722;6.734;2022-08-11T01:27:01;6.30;;;5.68;;
52304;SDS011;38248;52.722;6.734;2022-08-11T01:47:55;7.97;;;6.88;;
52304;SDS011;38248;52.722;6.734;2022-08-11T01:50:44;9.15;;;7.20;;
52304;SDS011;38248;52.722;6.734;2022-08-11T02:02:30;7.43;;;6.63;;
52304;SDS011;38248;52.722;6.734;2022-08-11T02:11:17;7.93;;;6.85;;
52304;SDS011;38248;52.722;6.734;2022-08-11T02:19:47;9.50;;;8.48;;
52304;SDS011;38248;52.722;6.734;2022-08-11T02:25:52;10.18;;;8.27;;
52304;SDS011;38248;52.722;6.734;2022-08-11T02:28:42;10.10;;;7.47;;
52304;SDS011;38248;52.722;6.734;2022-08-11T02:37:21;9.63;;;8.50;;
52304;SDS011;38248;52.722;6.734;2022-08-11T02:42:34;11.93;;;8.30;;
52304;SDS011;38248;52.722;6.734;2022-08-11T02:51:34;10.68;;;8.05;;
52304;SDS011;38248;52.722;6.734;2022-08-11T02:56:48;11.55;;;9.07;;
52304;SDS011;38248;52.722;6.734;2022-08-11T03:02:19;10.07;;;9.05;;
52304;SDS011;38248;52.722;6.734;2022-08-11T03:10:07;11.25;;;9.40;;
52304;SDS011;38248;52.722;6.734;2022-08-11T03:12:52;11.25;;;8.77;;
52304;SDS011;38248;52.722;6.734;2022-08-11T03:24:52;10.77;;;9.75;;
52304;SDS011;38248;52.722;6.734;2022-08-11T03:35:53;11.25;;;9.90;;
52304;SDS011;38248;52.722;6.734;2022-08-11T03:39:31;11.85;;;10.63;;
52304;SDS011;38248;52.722;6.734;2022-08-11T03:44:11;12.73;;;9.82;;
52304;SDS011;38248;52.722;6.734;2022-08-11T03:50:15;12.32;;;10.70;;
52304;SDS011;38248;52.722;6.734;2022-08-11T04:02:00;13.50;;;11.63;;
52304;SDS011;38248;52.722;6.734;2022-08-11T04:10:28;15.38;;;11.48;;
52304;SDS011;38248;52.722;6.734;2022-08-11T04:27:19;13.45;;;12.10;;
52304;SDS011;38248;52.722;6.734;2022-08-11T04:30:08;13.75;;;12.13;;
52304;SDS011;38248;52.722;6.734;2022-08-11T04:35:18;15.98;;;12.48;;
52304;SDS011;38248;52.722;6.734;2022-08-11T04:46:37;13.43;;;12.02;;
52304;SDS011;38248;52.722;6.734;2022-08-11T05:02:11;12.23;;;10.80;;
52304;SDS011;38248;52.722;6.734;2022-08-11T05:08:02;12.20;;;10.95;;
52304;SDS011;38248;52.722;6.734;2022-08-11T05:16:50;11.15;;;10.05;;
52304;SDS011;38248;52.722;6.734;2022-08-11T05:19:39;11.75;;;10.27;;
52304;SDS011;38248;52.722;6.734;2022-08-11T05:22:29;12.05;;;10.75;;
52304;SDS011;38248;52.722;6.734;2022-08-11T05:25:17;16.23;;;11.25;;
52304;SDS011;38248;52.722;6.734;2022-08-11T05:28:08;14.05;;;10.85;;
52304;SDS011;38248;52.722;6.734;2022-08-11T05:30:55;12.82;;;10.85;;
52304;SDS011;38248;52.722;6.734;2022-08-11T05:36:48;14.75;;;10.38;;
52304;SDS011;38248;52.722;6.734;2022-08-11T05:39:21;11.35;;;10.25;;
52304;SDS011;38248;52.722;6.734;2022-08-11T05:42:07;13.77;;;10.85;;
52304;SDS011;38248;52.722;6.734;2022-08-11T05:44:56;11.73;;;10.52;;
52304;SDS011;38248;52.722;6.734;2022-08-11T05:47:49;12.35;;;11.07;;
52304;SDS011;38248;52.722;6.734;2022-08-11T05:50:35;14.85;;;9.85;;
52304;SDS011;38248;52.722;6.734;2022-08-11T05:53:23;11.20;;;9.98;;
52304;SDS011;38248;52.722;6.734;2022-08-11T05:56:08;11.05;;;9.95;;
52304;SDS011;38248;52.722;6.734;2022-08-11T05:58:50;10.82;;;9.82;;
52304;SDS011;38248;52.722;6.734;2022-08-11T06:01:24;12.40;;;9.55;;
52304;SDS011;38248;52.722;6.734;2022-08-11T06:06:45;10.85;;;9.70;;
52304;SDS011;38248;52.722;6.734;2022-08-11T06:09:35;12.38;;;9.90;;
52304;SDS011;38248;52.722;6.734;2022-08-11T06:14:45;8.20;;;7.40;;
52304;SDS011;38248;52.722;6.734;2022-08-11T06:17:15;9.50;;;8.50;;
52304;SDS011;38248;52.722;6.734;2022-08-11T06:19:50;11.60;;;8.60;;
52304;SDS011;38248;52.722;6.734;2022-08-11T06:22:23;11.20;;;8.20;;
52304;SDS011;38248;52.722;6.734;2022-08-11T06:24:52;8.10;;;7.30;;
52304;SDS011;38248;52.722;6.734;2022-08-11T06:27:21;9.45;;;8.35;;
52304;SDS011;38248;52.722;6.734;2022-08-11T06:29:49;10.80;;;9.05;;
52304;SDS011;38248;52.722;6.734;2022-08-11T06:32:16;12.93;;;8.90;;
52304;SDS011;38248;52.722;6.734;2022-08-11T06:37:44;11.38;;;9.30;;
52304;SDS011;38248;52.722;6.734;2022-08-11T06:40:35;8.23;;;7.38;;
52304;SDS011;38248;52.722;6.734;2022-08-11T06:43:49;10.95;;;7.63;;
52304;SDS011;38248;52.722;6.734;2022-08-11T06:46:37;7.70;;;6.97;;
52304;SDS011;38248;52.722;6.734;2022-08-11T06:49:08;7.00;;;6.35;;
52304;SDS011;38248;52.722;6.734;2022-08-11T06:51:55;6.43;;;5.82;;
52304;SDS011;38248;52.722;6.734;2022-08-11T06:54:26;5.78;;;5.22;;
52304;SDS011;38248;52.722;6.734;2022-08-11T06:56:56;6.45;;;5.32;;
52304;SDS011;38248;52.722;6.734;2022-08-11T06:59:42;6.45;;;5.57;;
52304;SDS011;38248;52.722;6.734;2022-08-11T07:02:32;5.20;;;4.53;;
52304;SDS011;38248;52.722;6.734;2022-08-11T07:05:13;6.63;;;4.00;;
52304;SDS011;38248;52.722;6.734;2022-08-11T07:14:09;7.05;;;3.60;;
52304;SDS011;38248;52.722;6.734;2022-08-11T07:16:54;4.53;;;3.60;;
52304;SDS011;38248;52.722;6.734;2022-08-11T07:19:26;3.95;;;3.35;;
52304;SDS011;38248;52.722;6.734;2022-08-11T07:22:12;7.68;;;3.92;;
52304;SDS011;38248;52.722;6.734;2022-08-11T07:25:02;3.63;;;3.08;;
52304;SDS011;38248;52.722;6.734;2022-08-11T07:27:57;6.43;;;3.10;;
52304;SDS011;38248;52.722;6.734;2022-08-11T07:30:45;4.47;;;2.80;;
52304;SDS011;38248;52.722;6.734;2022-08-11T07:33:12;6.20;;;2.78;;
52304;SDS011;38248;52.722;6.734;2022-08-11T07:35:44;5.60;;;3.53;;
52304;SDS011;38248;52.722;6.734;2022-08-11T07:38:17;5.30;;;3.03;;
52304;SDS011;38248;52.722;6.734;2022-08-11T07:40:48;3.92;;;2.80;;
52304;SDS011;38248;52.722;6.734;2022-08-11T07:43:15;3.58;;;2.60;;
52304;SDS011;38248;52.722;6.734;2022-08-11T07:45:44;3.70;;;2.60;;
52304;SDS011;38248;52.722;6.734;2022-08-11T07:48:29;6.25;;;2.50;;
52304;SDS011;38248;52.722;6.734;2022-08-11T07:51:19;2.85;;;2.53;;
52304;SDS011;38248;52.722;6.734;2022-08-11T07:54:06;5.90;;;2.95;;
52304;SDS011;38248;52.722;6.734;2022-08-11T07:56:35;3.47;;;2.22;;
52304;SDS011;38248;52.722;6.734;2022-08-11T07:59:02;2.85;;;2.13;;
52304;SDS011;38248;52.722;6.734;2022-08-11T08:01:47;2.47;;;1.83;;
52304;SDS011;38248;52.722;6.734;2022-08-11T08:04:32;3.05;;;1.75;;
52304;SDS011;38248;52.722;6.734;2022-08-11T08:07:18;3.40;;;1.73;;
52304;SDS011;38248;52.722;6.734;2022-08-11T08:10:07;3.13;;;1.40;;
52304;SDS011;38248;52.722;6.734;2022-08-11T08:12:53;2.25;;;1.75;;
52304;SDS011;38248;52.722;6.734;2022-08-11T08:15:40;2.50;;;1.70;;
52304;SDS011;38248;52.722;6.734;2022-08-11T08:18:25;2.13;;;1.52;;
52304;SDS011;38248;52.722;6.734;2022-08-11T08:20:51;3.53;;;1.65;;
52304;SDS011;38248;52.722;6.734;2022-08-11T08:23:19;2.63;;;1.75;;
52304;SDS011;38248;52.722;6.734;2022-08-11T08:25:57;4.10;;;1.77;;
52304;SDS011;38248;52.722;6.734;2022-08-11T08:28:25;1.63;;;1.50;;
52304;SDS011;38248;52.722;6.734;2022-08-11T08:30:51;2.80;;;1.40;;
52304;SDS011;38248;52.722;6.734;2022-08-11T08:35:57;1.80;;;1.40;;
52304;SDS011;38248;52.722;6.734;2022-08-11T08:38:39;2.55;;;1.58;;
52304;SDS011;38248;52.722;6.734;2022-08-11T08:41:07;2.58;;;1.83;;
52304;SDS011;38248;52.722;6.734;2022-08-11T08:43:34;2.30;;;1.27;;
52304;SDS011;38248;52.722;6.734;2022-08-11T08:46:01;4.30;;;1.77;;
52304;SDS011;38248;52.722;6.734;2022-08-11T08:48:31;5.00;;;1.38;;
52304;SDS011;38248;52.722;6.734;2022-08-11T08:51:02;2.30;;;1.17;;
52304;SDS011;38248;52.722;6.734;2022-08-11T08:53:52;4.50;;;1.45;;
52304;SDS011;38248;52.722;6.734;2022-08-11T08:56:19;3.17;;;1.40;;
52304;SDS011;38248;52.722;6.734;2022-08-11T09:01:18;4.53;;;1.60;;
52304;SDS011;38248;52.722;6.734;2022-08-11T09:03:46;1.55;;;1.13;;
52304;SDS011;38248;52.722;6.734;2022-08-11T09:06:12;1.63;;;1.30;;
52304;SDS011;38248;52.722;6.734;2022-08-11T09:08:41;2.78;;;1.52;;
52304;SDS011;38248;52.722;6.734;2022-08-11T09:11:08;8.73;;;1.58;;
52304;SDS011;38248;52.722;6.734;2022-08-11T09:13:54;10.70;;;2.10;;
52304;SDS011;38248;52.722;6.734;2022-08-11T09:16:20;16.73;;;2.40;;
52304;SDS011;38248;52.722;6.734;2022-08-11T09:18:47;7.82;;;1.40;;
52304;SDS011;38248;52.722;6.734;2022-08-11T09:21:14;7.18;;;1.40;;
52304;SDS011;38248;52.722;6.734;2022-08-11T09:23:44;3.90;;;1.50;;
52304;SDS011;38248;52.722;6.734;2022-08-11T09:26:29;7.60;;;1.92;;
52304;SDS011;38248;52.722;6.734;2022-08-11T09:29:14;4.40;;;1.50;;
52304;SDS011;38248;52.722;6.734;2022-08-11T09:31:40;1.55;;;1.00;;
52304;SDS011;38248;52.722;6.734;2022-08-11T09:34:08;3.50;;;1.30;;
52304;SDS011;38248;52.722;6.734;2022-08-11T09:36:36;2.67;;;1.00;;
52304;SDS011;38248;52.722;6.734;2022-08-11T09:39:22;1.70;;;1.20;;
52304;SDS011;38248;52.722;6.734;2022-08-11T09:42:08;1.92;;;1.05;;
52304;SDS011;38248;52.722;6.734;2022-08-11T09:44:34;1.40;;;1.00;;
52304;SDS011;38248;52.722;6.734;2022-08-11T09:47:18;1.27;;;0.75;;
52304;SDS011;38248;52.722;6.734;2022-08-11T09:49:49;3.92;;;1.10;;
52304;SDS011;38248;52.722;6.734;2022-08-11T09:52:18;1.70;;;0.98;;
52304;SDS011;38248;52.722;6.734;2022-08-11T09:54:47;2.17;;;1.13;;
52304;SDS011;38248;52.722;6.734;2022-08-11T09:57:16;0.98;;;0.88;;
52304;SDS011;38248;52.722;6.734;2022-08-11T10:00:04;4.28;;;1.27;;
52304;SDS011;38248;52.722;6.734;2022-08-11T10:02:36;3.60;;;0.98;;
52304;SDS011;38248;52.722;6.734;2022-08-11T10:05:05;6.13;;;1.02;;
52304;SDS011;38248;52.722;6.734;2022-08-11T10:07:50;2.63;;;1.00;;
52304;SDS011;38248;52.722;6.734;2022-08-11T10:10:18;3.53;;;0.98;;
52304;SDS011;38248;52.722;6.734;2022-08-11T10:12:51;1.45;;;1.10;;
52304;SDS011;38248;52.722;6.734;2022-08-11T10:15:24;0.98;;;0.88;;
52304;SDS011;38248;52.722;6.734;2022-08-11T10:18:08;2.05;;;1.00;;
52304;SDS011;38248;52.722;6.734;2022-08-11T10:20:57;2.42;;;0.85;;
52304;SDS011;38248;52.722;6.734;2022-08-11T10:23:26;2.80;;;1.05;;
52304;SDS011;38248;52.722;6.734;2022-08-11T10:26:15;2.15;;;0.90;;
52304;SDS011;38248;52.722;6.734;2022-08-11T10:29:02;2.50;;;0.85;;
52304;SDS011;38248;52.722;6.734;2022-08-11T10:31:53;2.88;;;0.98;;
52304;SDS011;38248;52.722;6.734;2022-08-11T10:34:39;2.10;;;0.98;;
52304;SDS011;38248;52.722;6.734;2022-08-11T10:37:07;0.75;;;0.75;;
52304;SDS011;38248;52.722;6.734;2022-08-11T10:39:34;3.45;;;1.20;;
52304;SDS011;38248;52.722;6.734;2022-08-11T10:42:02;1.10;;;1.00;;
52304;SDS011;38248;52.722;6.734;2022-08-11T10:44:52;1.52;;;0.95;;
52304;SDS011;38248;52.722;6.734;2022-08-11T10:47:19;1.27;;;0.82;;
52304;SDS011;38248;52.722;6.734;2022-08-11T10:50:06;3.22;;;1.13;;
52304;SDS011;38248;52.722;6.734;2022-08-11T10:52:52;3.70;;;1.00;;
52304;SDS011;38248;52.722;6.734;2022-08-11T10:55:40;1.88;;;0.98;;
52304;SDS011;38248;52.722;6.734;2022-08-11T10:58:26;1.27;;;1.08;;
52304;SDS011;38248;52.722;6.734;2022-08-11T11:03:51;2.67;;;1.38;;
52304;SDS011;38248;52.722;6.734;2022-08-11T11:09:07;4.32;;;1.10;;
52304;SDS011;38248;52.722;6.734;2022-08-11T11:11:45;3.55;;;1.15;;
52304;SDS011;38248;52.722;6.734;2022-08-11T11:14:41;2.30;;;1.05;;
52304;SDS011;38248;52.722;6.734;2022-08-11T11:17:28;1.98;;;0.93;;
52304;SDS011;38248;52.722;6.734;2022-08-11T11:20:16;0.85;;;0.85;;
52304;SDS011;38248;52.722;6.734;2022-08-11T11:22:44;1.30;;;0.90;;
52304;SDS011;38248;52.722;6.734;2022-08-11T11:25:19;2.75;;;1.10;;
52304;SDS011;38248;52.722;6.734;2022-08-11T11:30:13;3.65;;;1.13;;
52304;SDS011;38248;52.722;6.734;2022-08-11T11:32:43;1.85;;;0.73;;
52304;SDS011;38248;52.722;6.734;2022-08-11T11:35:35;1.40;;;1.00;;
52304;SDS011;38248;52.722;6.734;2022-08-11T11:38:11;2.38;;;0.90;;
52304;SDS011;38248;52.722;6.734;2022-08-11T11:40:37;1.80;;;0.73;;
52304;SDS011;38248;52.722;6.734;2022-08-11T11:43:04;1.10;;;0.80;;
52304;SDS011;38248;52.722;6.734;2022-08-11T11:45:30;0.80;;;0.70;;
52304;SDS011;38248;52.722;6.734;2022-08-11T11:47:57;1.52;;;0.90;;
52304;SDS011;38248;52.722;6.734;2022-08-11T11:50:28;1.13;;;0.90;;
52304;SDS011;38248;52.722;6.734;2022-08-11T11:53:00;1.15;;;0.80;;
52304;SDS011;38248;52.722;6.734;2022-08-11T11:55:28;2.40;;;0.73;;
52304;SDS011;38248;52.722;6.734;2022-08-11T11:57:56;4.50;;;0.88;;
52304;SDS011;38248;52.722;6.734;2022-08-11T12:00:43;2.85;;;0.90;;
52304;SDS011;38248;52.722;6.734;2022-08-11T12:03:28;2.53;;;0.80;;
52304;SDS011;38248;52.722;6.734;2022-08-11T12:05:55;1.83;;;0.82;;
52304;SDS011;38248;52.722;6.734;2022-08-11T12:08:21;1.55;;;0.98;;
52304;SDS011;38248;52.722;6.734;2022-08-11T12:10:50;1.60;;;0.70;;
52304;SDS011;38248;52.722;6.734;2022-08-11T12:13:41;1.65;;;0.95;;
52304;SDS011;38248;52.722;6.734;2022-08-11T12:16:10;3.63;;;0.90;;
52304;SDS011;38248;52.722;6.734;2022-08-11T12:18:39;2.90;;;0.85;;
52304;SDS011;38248;52.722;6.734;2022-08-11T12:21:07;1.13;;;0.80;;
52304;SDS011;38248;52.722;6.734;2022-08-11T12:23:35;1.52;;;0.80;;
52304;SDS011;38248;52.722;6.734;2022-08-11T12:26:21;2.05;;;0.70;;
52304;SDS011;38248;52.722;6.734;2022-08-11T12:29:08;3.13;;;0.70;;
52304;SDS011;38248;52.722;6.734;2022-08-11T12:31:36;3.15;;;0.80;;
52304;SDS011;38248;52.722;6.734;2022-08-11T12:34:03;1.30;;;0.65;;
52304;SDS011;38248;52.722;6.734;2022-08-11T12:36:35;1.58;;;0.60;;
52304;SDS011;38248;52.722;6.734;2022-08-11T12:39:05;1.33;;;0.80;;
52304;SDS011;38248;52.722;6.734;2022-08-11T12:41:34;1.83;;;0.50;;
52304;SDS011;38248;52.722;6.734;2022-08-11T12:44:22;0.90;;;0.63;;
52304;SDS011;38248;52.722;6.734;2022-08-11T12:47:08;1.08;;;0.80;;
52304;SDS011;38248;52.722;6.734;2022-08-11T12:49:35;1.60;;;0.80;;
52304;SDS011;38248;52.722;6.734;2022-08-11T12:52:27;1.10;;;0.70;;
52304;SDS011;38248;52.722;6.734;2022-08-11T12:54:59;1.00;;;0.70;;
52304;SDS011;38248;52.722;6.734;2022-08-11T12:57:37;1.73;;;0.65;;
52304;SDS011;38248;52.722;6.734;2022-08-11T13:00:25;2.20;;;0.70;;
52304;SDS011;38248;52.722;6.734;2022-08-11T13:03:12;1.60;;;0.60;;
52304;SDS011;38248;52.722;6.734;2022-08-11T13:05:58;1.70;;;0.60;;
52304;SDS011;38248;52.722;6.734;2022-08-11T13:08:26;1.38;;;0.70;;
52304;SDS011;38248;52.722;6.734;2022-08-11T13:10:54;2.70;;;0.63;;
52304;SDS011;38248;52.722;6.734;2022-08-11T13:13:41;1.05;;;0.52;;
52304;SDS011;38248;52.722;6.734;2022-08-11T13:16:14;1.08;;;0.82;;
52304;SDS011;38248;52.722;6.734;2022-08-11T13:18:41;2.72;;;0.68;;
52304;SDS011;38248;52.722;6.734;2022-08-11T13:21:08;0.82;;;0.57;;
52304;SDS011;38248;52.722;6.734;2022-08-11T13:23:35;1.52;;;0.70;;
52304;SDS011;38248;52.722;6.734;2022-08-11T13:26:03;2.55;;;0.63;;
52304;SDS011;38248;52.722;6.734;2022-08-11T13:28:29;2.20;;;0.90;;
52304;SDS011;38248;52.722;6.734;2022-08-11T13:30:55;1.38;;;0.60;;
52304;SDS011;38248;52.722;6.734;2022-08-11T13:33:39;2.22;;;0.90;;
52304;SDS011;38248;52.722;6.734;2022-08-11T13:36:07;2.03;;;0.70;;
52304;SDS011;38248;52.722;6.734;2022-08-11T13:38:33;1.70;;;0.57;;
52304;SDS011;38248;52.722;6.734;2022-08-11T13:41:01;1.20;;;0.70;;
52304;SDS011;38248;52.722;6.734;2022-08-11T13:43:48;1.27;;;0.50;;
52304;SDS011;38248;52.722;6.734;2022-08-11T13:46:15;0.88;;;0.70;;
52304;SDS011;38248;52.722;6.734;2022-08-11T13:48:45;1.33;;;0.85;;
52304;SDS011;38248;52.722;6.734;2022-08-11T13:51:11;1.42;;;0.57;;
52304;SDS011;38248;52.722;6.734;2022-08-11T13:54:00;3.15;;;1.15;;
52304;SDS011;38248;52.722;6.734;2022-08-11T13:56:35;2.28;;;0.80;;
52304;SDS011;38248;52.722;6.734;2022-08-11T13:59:04;2.63;;;0.68;;
52304;SDS011;38248;52.722;6.734;2022-08-11T14:01:36;2.20;;;0.70;;
52304;SDS011;38248;52.722;6.734;2022-08-11T14:04:07;2.70;;;0.65;;
52304;SDS011;38248;52.722;6.734;2022-08-11T14:06:37;2.63;;;0.80;;
52304;SDS011;38248;52.722;6.734;2022-08-11T14:09:09;1.92;;;0.80;;
52304;SDS011;38248;52.722;6.734;2022-08-11T14:11:35;1.13;;;0.65;;
52304;SDS011;38248;52.722;6.734;2022-08-11T14:14:24;2.35;;;1.20;;
52304;SDS011;38248;52.722;6.734;2022-08-11T14:16:53;1.27;;;0.50;;
52304;SDS011;38248;52.722;6.734;2022-08-11T14:19:21;1.73;;;0.75;;
52304;SDS011;38248;52.722;6.734;2022-08-11T14:21:49;0.80;;;0.60;;
52304;SDS011;38248;52.722;6.734;2022-08-11T14:24:35;2.17;;;0.60;;
52304;SDS011;38248;52.722;6.734;2022-08-11T14:27:09;1.80;;;0.57;;
52304;SDS011;38248;52.722;6.734;2022-08-11T14:32:14;0.70;;;0.70;;
52304;SDS011;38248;52.722;6.734;2022-08-11T14:34:42;1.35;;;0.60;;
52304;SDS011;38248;52.722;6.734;2022-08-11T14:37:12;1.08;;;0.60;;
52304;SDS011;38248;52.722;6.734;2022-08-11T14:39:47;1.10;;;0.45;;
52304;SDS011;38248;52.722;6.734;2022-08-11T14:42:18;1.10;;;0.45;;
52304;SDS011;38248;52.722;6.734;2022-08-11T14:45:05;2.50;;;0.70;;
52304;SDS011;38248;52.722;6.734;2022-08-11T14:47:53;1.95;;;1.05;;
52304;SDS011;38248;52.722;6.734;2022-08-11T14:50:25;1.92;;;0.50;;
52304;SDS011;38248;52.722;6.734;2022-08-11T14:55:26;1.05;;;0.60;;
52304;SDS011;38248;52.722;6.734;2022-08-11T14:58:17;2.83;;;0.90;;
52304;SDS011;38248;52.722;6.734;2022-08-11T15:03:12;5.85;;;1.50;;
52304;SDS011;38248;52.722;6.734;2022-08-11T15:05:52;1.48;;;0.70;;
52304;SDS011;38248;52.722;6.734;2022-08-11T15:08:27;1.27;;;0.50;;
52304;SDS011;38248;52.722;6.734;2022-08-11T15:11:15;4.30;;;0.70;;
52304;SDS011;38248;52.722;6.734;2022-08-11T15:14:04;4.07;;;0.80;;
52304;SDS011;38248;52.722;6.734;2022-08-11T15:16:31;0.65;;;0.40;;
52304;SDS011;38248;52.722;6.734;2022-08-11T15:19:17;0.90;;;0.60;;
52304;SDS011;38248;52.722;6.734;2022-08-11T15:21:48;1.00;;;0.40;;
52304;SDS011;38248;52.722;6.734;2022-08-11T15:24:35;2.35;;;1.05;;
52304;SDS011;38248;52.722;6.734;2022-08-11T15:27:03;2.15;;;0.50;;
52304;SDS011;38248;52.722;6.734;2022-08-11T15:29:51;0.70;;;0.60;;
52304;SDS011;38248;52.722;6.734;2022-08-11T15:32:38;1.30;;;0.68;;
52304;SDS011;38248;52.722;6.734;2022-08-11T15:35:24;1.33;;;0.60;;
52304;SDS011;38248;52.722;6.734;2022-08-11T15:38:10;3.10;;;0.82;;
52304;SDS011;38248;52.722;6.734;2022-08-11T15:40:38;0.98;;;0.60;;
52304;SDS011;38248;52.722;6.734;2022-08-11T15:43:27;1.92;;;0.70;;
52304;SDS011;38248;52.722;6.734;2022-08-11T15:46:16;2.58;;;0.75;;
52304;SDS011;38248;52.722;6.734;2022-08-11T15:48:47;0.85;;;0.70;;
52304;SDS011;38248;52.722;6.734;2022-08-11T15:51:28;0.90;;;0.60;;
52304;SDS011;38248;52.722;6.734;2022-08-11T15:54:06;1.88;;;0.65;;
52304;SDS011;38248;52.722;6.734;2022-08-11T15:56:36;2.42;;;0.68;;
52304;SDS011;38248;52.722;6.734;2022-08-11T15:59:06;1.70;;;0.50;;
52304;SDS011;38248;52.722;6.734;2022-08-11T16:01:52;1.00;;;0.60;;
52304;SDS011;38248;52.722;6.734;2022-08-11T16:04:38;2.00;;;0.73;;
52304;SDS011;38248;52.722;6.734;2022-08-11T16:07:06;1.25;;;0.90;;
52304;SDS011;38248;52.722;6.734;2022-08-11T16:12:31;2.25;;;0.68;;
52304;SDS011;38248;52.722;6.734;2022-08-11T16:15:09;3.65;;;0.77;;
52304;SDS011;38248;52.722;6.734;2022-08-11T16:18:01;2.60;;;0.88;;
52304;SDS011;38248;52.722;6.734;2022-08-11T16:20:30;2.05;;;0.60;;
52304;SDS011;38248;52.722;6.734;2022-08-11T16:23:04;1.42;;;0.93;;
52304;SDS011;38248;52.722;6.734;2022-08-11T16:25:33;1.73;;;0.70;;
52304;SDS011;38248;52.722;6.734;2022-08-11T16:28:01;1.27;;;0.80;;
52304;SDS011;38248;52.722;6.734;2022-08-11T16:30:35;1.88;;;0.73;;
52304;SDS011;38248;52.722;6.734;2022-08-11T16:33:04;0.80;;;0.73;;
52304;SDS011;38248;52.722;6.734;2022-08-11T16:35:35;2.33;;;0.95;;
52304;SDS011;38248;52.722;6.734;2022-08-11T16:38:21;1.33;;;0.98;;
52304;SDS011;38248;52.722;6.734;2022-08-11T16:41:00;3.70;;;1.00;;
52304;SDS011;38248;52.722;6.734;2022-08-11T16:43:31;3.08;;;0.80;;
52304;SDS011;38248;52.722;6.734;2022-08-11T16:46:20;1.33;;;0.90;;
52304;SDS011;38248;52.722;6.734;2022-08-11T16:49:07;2.10;;;0.60;;
52304;SDS011;38248;52.722;6.734;2022-08-11T16:51:37;2.53;;;0.90;;
52304;SDS011;38248;52.722;6.734;2022-08-11T16:54:03;1.35;;;0.90;;
52304;SDS011;38248;52.722;6.734;2022-08-11T16:56:31;2.60;;;0.80;;
52304;SDS011;38248;52.722;6.734;2022-08-11T16:59:01;1.95;;;0.80;;
52304;SDS011;38248;52.722;6.734;2022-08-11T17:01:43;3.60;;;0.93;;
52304;SDS011;38248;52.722;6.734;2022-08-11T17:04:14;1.85;;;1.00;;
52304;SDS011;38248;52.722;6.734;2022-08-11T17:07:04;2.40;;;0.73;;
52304;SDS011;38248;52.722;6.734;2022-08-11T17:09:49;1.08;;;0.80;;
52304;SDS011;38248;52.722;6.734;2022-08-11T17:12:35;0.82;;;0.73;;
52304;SDS011;38248;52.722;6.734;2022-08-11T17:15:23;3.45;;;0.90;;
52304;SDS011;38248;52.722;6.734;2022-08-11T17:18:13;1.60;;;0.82;;
52304;SDS011;38248;52.722;6.734;2022-08-11T17:21:01;2.47;;;1.08;;
52304;SDS011;38248;52.722;6.734;2022-08-11T17:23:28;2.15;;;0.90;;
52304;SDS011;38248;52.722;6.734;2022-08-11T17:26:13;1.80;;;0.90;;
52304;SDS011;38248;52.722;6.734;2022-08-11T17:29:12;1.30;;;1.05;;
52304;SDS011;38248;52.722;6.734;2022-08-11T17:31:38;1.50;;;0.90;;
52304;SDS011;38248;52.722;6.734;2022-08-11T17:34:23;1.45;;;0.90;;
52304;SDS011;38248;52.722;6.734;2022-08-11T17:37:08;0.93;;;0.75;;
52304;SDS011;38248;52.722;6.734;2022-08-11T17:39:34;1.88;;;1.00;;
52304;SDS011;38248;52.722;6.734;2022-08-11T17:42:00;1.98;;;1.42;;
52304;SDS011;38248;52.722;6.734;2022-08-11T17:44:47;2.17;;;1.05;;
52304;SDS011;38248;52.722;6.734;2022-08-11T17:47:37;2.92;;;1.10;;
52304;SDS011;38248;52.722;6.734;2022-08-11T17:50:22;1.40;;;1.00;;
52304;SDS011;38248;52.722;6.734;2022-08-11T17:52:48;1.40;;;1.17;;
52304;SDS011;38248;52.722;6.734;2022-08-11T17:55:34;2.22;;;1.00;;
52304;SDS011;38248;52.722;6.734;2022-08-11T17:58:21;1.77;;;1.00;;
52304;SDS011;38248;52.722;6.734;2022-08-11T18:01:08;1.20;;;0.98;;
52304;SDS011;38248;52.722;6.734;2022-08-11T18:03:36;2.05;;;0.90;;
52304;SDS011;38248;52.722;6.734;2022-08-11T18:06:05;3.72;;;1.20;;
52304;SDS011;38248;52.722;6.734;2022-08-11T18:08:33;1.42;;;1.20;;
52304;SDS011;38248;52.722;6.734;2022-08-11T18:11:21;3.38;;;1.10;;
52304;SDS011;38248;52.722;6.734;2022-08-11T18:14:09;1.88;;;1.30;;
52304;SDS011;38248;52.722;6.734;2022-08-11T18:16:55;6.72;;;2.08;;
52304;SDS011;38248;52.722;6.734;2022-08-11T18:19:40;2.35;;;1.10;;
52304;SDS011;38248;52.722;6.734;2022-08-11T18:22:25;2.83;;;1.40;;
52304;SDS011;38248;52.722;6.734;2022-08-11T18:25:18;2.70;;;1.10;;
52304;SDS011;38248;52.722;6.734;2022-08-11T18:28:07;2.05;;;0.90;;
52304;SDS011;38248;52.722;6.734;2022-08-11T18:30:54;1.73;;;1.00;;
52304;SDS011;38248;52.722;6.734;2022-08-11T18:33:45;2.30;;;1.10;;
52304;SDS011;38248;52.722;6.734;2022-08-11T18:36:39;1.77;;;1.20;;
52304;SDS011;38248;52.722;6.734;2022-08-11T18:39:29;1.27;;;1.10;;
52304;SDS011;38248;52.722;6.734;2022-08-11T18:42:17;1.42;;;0.93;;
52304;SDS011;38248;52.722;6.734;2022-08-11T18:45:09;3.25;;;1.00;;
52304;SDS011;38248;52.722;6.734;2022-08-11T18:47:57;2.30;;;0.85;;
52304;SDS011;38248;52.722;6.734;2022-08-11T18:50:45;1.52;;;0.90;;
52304;SDS011;38248;52.722;6.734;2022-08-11T18:53:31;3.83;;;1.15;;
52304;SDS011;38248;52.722;6.734;2022-08-11T18:56:19;1.42;;;1.02;;
52304;SDS011;38248;52.722;6.734;2022-08-11T18:59:05;1.50;;;0.85;;
52304;SDS011;38248;52.722;6.734;2022-08-11T19:01:51;3.17;;;1.40;;
52304;SDS011;38248;52.722;6.734;2022-08-11T19:04:38;1.52;;;1.00;;
52304;SDS011;38248;52.722;6.734;2022-08-11T19:07:24;2.90;;;1.10;;
52304;SDS011;38248;52.722;6.734;2022-08-11T19:10:13;2.05;;;1.30;;
52304;SDS011;38248;52.722;6.734;2022-08-11T19:12:58;2.50;;;0.88;;
52304;SDS011;38248;52.722;6.734;2022-08-11T19:15:43;2.75;;;0.93;;
52304;SDS011;38248;52.722;6.734;2022-08-11T19:18:29;3.50;;;1.10;;
52304;SDS011;38248;52.722;6.734;2022-08-11T19:21:15;2.90;;;1.30;;
52304;SDS011;38248;52.722;6.734;2022-08-11T19:24:02;1.52;;;1.42;;
52304;SDS011;38248;52.722;6.734;2022-08-11T19:26:47;2.88;;;1.30;;
52304;SDS011;38248;52.722;6.734;2022-08-11T19:29:35;4.88;;;1.10;;
52304;SDS011;38248;52.722;6.734;2022-08-11T19:32:21;6.22;;;1.20;;
52304;SDS011;38248;52.722;6.734;2022-08-11T19:35:07;2.13;;;1.00;;
52304;SDS011;38248;52.722;6.734;2022-08-11T19:37:53;2.20;;;1.17;;
52304;SDS011;38248;52.722;6.734;2022-08-11T19:40:38;2.25;;;1.15;;
52304;SDS011;38248;52.722;6.734;2022-08-11T19:43:23;5.85;;;1.60;;